Alpine, Utah
Current Conditions -  °F | °C
As of 2:35 AM on Thursday 23 Oct 2014 (Local Time) from KPVU Reporting Station
Clear Clear  
Wind Chill: 34°   Ceiling: Unl
Heat Index: 39°   Visibility: 10mi
Dew Point: 30°   Wind: 7mph
Humidity: 70%   Direction: 80°E
Pressure: 30.19"   Gusts: NA
Location:  40.45°N, 111.78°W
Report Text: KPVU 230835Z 08006KT 10SM CLR 04/M01 A3019 RMK AO1
Loading
Personal Weather Stations






























Interactive Weather Map
Tropical Storm Tracking
New forecast layout! Learn more

10-Day Weather Forecast

Advertisements
Track Severe Weather on mobile